sensor_id;sensor_type;location;lat;lon;timestamp;P1;durP1;ratioP1;P2;durP2;ratioP2
13849;SDS011;6995;52.618;13.488;2023-04-24T00:01:13;30.90;;;29.20;;
13849;SDS011;6995;52.618;13.488;2023-04-24T00:03:40;34.03;;;32.23;;
13849;SDS011;6995;52.618;13.488;2023-04-24T00:06:06;30.07;;;28.37;;
13849;SDS011;6995;52.618;13.488;2023-04-24T00:08:33;30.43;;;28.70;;
13849;SDS011;6995;52.618;13.488;2023-04-24T00:10:59;27.67;;;26.27;;
13849;SDS011;6995;52.618;13.488;2023-04-24T00:13:25;29.23;;;27.70;;
13849;SDS011;6995;52.618;13.488;2023-04-24T00:15:53;27.20;;;25.53;;
13849;SDS011;6995;52.618;13.488;2023-04-24T00:18:19;28.60;;;26.93;;
13849;SDS011;6995;52.618;13.488;2023-04-24T00:20:45;28.50;;;27.00;;
13849;SDS011;6995;52.618;13.488;2023-04-24T00:23:11;26.17;;;24.67;;
13849;SDS011;6995;52.618;13.488;2023-04-24T00:25:37;26.40;;;24.80;;
13849;SDS011;6995;52.618;13.488;2023-04-24T00:28:03;28.07;;;26.30;;
13849;SDS011;6995;52.618;13.488;2023-04-24T00:30:28;27.73;;;26.23;;
13849;SDS011;6995;52.618;13.488;2023-04-24T00:32:54;29.07;;;27.43;;
13849;SDS011;6995;52.618;13.488;2023-04-24T00:35:20;27.17;;;25.60;;
13849;SDS011;6995;52.618;13.488;2023-04-24T00:37:45;26.90;;;25.50;;
13849;SDS011;6995;52.618;13.488;2023-04-24T00:40:11;26.73;;;25.17;;
13849;SDS011;6995;52.618;13.488;2023-04-24T00:42:37;26.40;;;24.90;;
13849;SDS011;6995;52.618;13.488;2023-04-24T00:45:03;27.50;;;25.90;;
13849;SDS011;6995;52.618;13.488;2023-04-24T00:47:30;27.10;;;25.53;;
13849;SDS011;6995;52.618;13.488;2023-04-24T00:49:58;27.03;;;25.53;;
13849;SDS011;6995;52.618;13.488;2023-04-24T00:52:25;27.70;;;26.20;;
13849;SDS011;6995;52.618;13.488;2023-04-24T00:54:51;26.47;;;24.97;;
13849;SDS011;6995;52.618;13.488;2023-04-24T00:57:16;28.13;;;26.53;;
13849;SDS011;6995;52.618;13.488;2023-04-24T00:59:42;27.63;;;26.10;;
13849;SDS011;6995;52.618;13.488;2023-04-24T01:02:09;27.47;;;25.97;;
13849;SDS011;6995;52.618;13.488;2023-04-24T01:04:36;26.70;;;25.13;;
13849;SDS011;6995;52.618;13.488;2023-04-24T01:07:02;28.73;;;27.03;;
13849;SDS011;6995;52.618;13.488;2023-04-24T01:09:28;27.67;;;26.10;;
13849;SDS011;6995;52.618;13.488;2023-04-24T01:11:54;27.27;;;25.77;;
13849;SDS011;6995;52.618;13.488;2023-04-24T01:14:20;26.50;;;24.90;;
13849;SDS011;6995;52.618;13.488;2023-04-24T01:16:46;28.57;;;26.77;;
13849;SDS011;6995;52.618;13.488;2023-04-24T01:19:11;28.33;;;26.63;;
13849;SDS011;6995;52.618;13.488;2023-04-24T01:21:39;27.57;;;25.73;;
13849;SDS011;6995;52.618;13.488;2023-04-24T01:24:08;29.10;;;27.50;;
13849;SDS011;6995;52.618;13.488;2023-04-24T01:26:33;26.43;;;24.50;;
13849;SDS011;6995;52.618;13.488;2023-04-24T01:28:59;29.90;;;28.20;;
13849;SDS011;6995;52.618;13.488;2023-04-24T01:31:25;27.00;;;25.40;;
13849;SDS011;6995;52.618;13.488;2023-04-24T01:33:51;29.23;;;27.43;;
13849;SDS011;6995;52.618;13.488;2023-04-24T01:36:17;28.47;;;26.87;;
13849;SDS011;6995;52.618;13.488;2023-04-24T01:38:43;27.23;;;25.73;;
13849;SDS011;6995;52.618;13.488;2023-04-24T01:41:10;28.63;;;27.03;;
13849;SDS011;6995;52.618;13.488;2023-04-24T01:43:35;30.97;;;29.20;;
13849;SDS011;6995;52.618;13.488;2023-04-24T01:46:01;28.00;;;26.40;;
13849;SDS011;6995;52.618;13.488;2023-04-24T01:48:27;27.97;;;26.33;;
13849;SDS011;6995;52.618;13.488;2023-04-24T01:50:52;29.43;;;27.60;;
13849;SDS011;6995;52.618;13.488;2023-04-24T01:53:19;28.13;;;26.53;;
13849;SDS011;6995;52.618;13.488;2023-04-24T01:55:45;29.43;;;27.63;;
13849;SDS011;6995;52.618;13.488;2023-04-24T01:58:10;29.30;;;27.30;;
13849;SDS011;6995;52.618;13.488;2023-04-24T02:00:36;27.80;;;26.10;;
13849;SDS011;6995;52.618;13.488;2023-04-24T02:03:02;28.93;;;27.03;;
13849;SDS011;6995;52.618;13.488;2023-04-24T02:05:28;27.40;;;25.70;;
13849;SDS011;6995;52.618;13.488;2023-04-24T02:07:53;29.90;;;28.07;;
13849;SDS011;6995;52.618;13.488;2023-04-24T02:10:19;30.63;;;28.70;;
13849;SDS011;6995;52.618;13.488;2023-04-24T02:12:44;31.63;;;29.83;;
13849;SDS011;6995;52.618;13.488;2023-04-24T02:15:10;29.53;;;27.77;;
13849;SDS011;6995;52.618;13.488;2023-04-24T02:17:36;28.13;;;26.43;;
13849;SDS011;6995;52.618;13.488;2023-04-24T02:20:02;28.57;;;26.97;;
13849;SDS011;6995;52.618;13.488;2023-04-24T02:22:29;28.47;;;26.87;;
13849;SDS011;6995;52.618;13.488;2023-04-24T02:24:55;30.53;;;28.63;;
13849;SDS011;6995;52.618;13.488;2023-04-24T02:27:21;29.90;;;28.20;;
13849;SDS011;6995;52.618;13.488;2023-04-24T02:29:46;28.20;;;26.60;;
13849;SDS011;6995;52.618;13.488;2023-04-24T02:32:12;30.43;;;28.43;;
13849;SDS011;6995;52.618;13.488;2023-04-24T02:34:40;27.70;;;26.10;;
13849;SDS011;6995;52.618;13.488;2023-04-24T02:37:05;31.47;;;29.67;;
13849;SDS011;6995;52.618;13.488;2023-04-24T02:39:31;31.10;;;29.30;;
13849;SDS011;6995;52.618;13.488;2023-04-24T02:41:57;29.33;;;27.63;;
13849;SDS011;6995;52.618;13.488;2023-04-24T02:44:23;27.47;;;25.77;;
13849;SDS011;6995;52.618;13.488;2023-04-24T02:46:48;29.80;;;27.97;;
13849;SDS011;6995;52.618;13.488;2023-04-24T02:49:14;29.90;;;28.10;;
13849;SDS011;6995;52.618;13.488;2023-04-24T02:51:40;28.57;;;27.07;;
13849;SDS011;6995;52.618;13.488;2023-04-24T02:54:06;30.37;;;28.47;;
13849;SDS011;6995;52.618;13.488;2023-04-24T02:56:33;30.37;;;28.57;;
13849;SDS011;6995;52.618;13.488;2023-04-24T02:58:59;29.40;;;27.77;;
13849;SDS011;6995;52.618;13.488;2023-04-24T03:01:24;30.17;;;28.47;;
13849;SDS011;6995;52.618;13.488;2023-04-24T03:03:50;29.90;;;28.13;;
13849;SDS011;6995;52.618;13.488;2023-04-24T03:06:15;28.27;;;26.57;;
13849;SDS011;6995;52.618;13.488;2023-04-24T03:08:41;28.77;;;27.10;;
13849;SDS011;6995;52.618;13.488;2023-04-24T03:11:07;27.73;;;26.10;;
13849;SDS011;6995;52.618;13.488;2023-04-24T03:13:32;29.53;;;27.83;;
13849;SDS011;6995;52.618;13.488;2023-04-24T03:15:58;30.70;;;29.00;;
13849;SDS011;6995;52.618;13.488;2023-04-24T03:18:23;29.00;;;27.23;;
13849;SDS011;6995;52.618;13.488;2023-04-24T03:20:50;27.73;;;26.23;;
13849;SDS011;6995;52.618;13.488;2023-04-24T03:23:16;28.63;;;26.97;;
13849;SDS011;6995;52.618;13.488;2023-04-24T03:25:41;29.80;;;28.03;;
13849;SDS011;6995;52.618;13.488;2023-04-24T03:28:07;28.97;;;27.17;;
13849;SDS011;6995;52.618;13.488;2023-04-24T03:30:33;29.67;;;28.00;;
13849;SDS011;6995;52.618;13.488;2023-04-24T03:32:59;28.83;;;27.10;;
13849;SDS011;6995;52.618;13.488;2023-04-24T03:35:25;29.60;;;27.60;;
13849;SDS011;6995;52.618;13.488;2023-04-24T03:37:51;29.63;;;27.93;;
13849;SDS011;6995;52.618;13.488;2023-04-24T03:40:16;28.37;;;26.57;;
13849;SDS011;6995;52.618;13.488;2023-04-24T03:42:45;29.90;;;28.17;;
13849;SDS011;6995;52.618;13.488;2023-04-24T03:45:11;30.23;;;28.43;;
13849;SDS011;6995;52.618;13.488;2023-04-24T03:47:36;29.73;;;27.93;;
13849;SDS011;6995;52.618;13.488;2023-04-24T03:50:02;28.70;;;26.83;;
13849;SDS011;6995;52.618;13.488;2023-04-24T03:52:28;29.97;;;28.27;;
13849;SDS011;6995;52.618;13.488;2023-04-24T03:54:53;30.37;;;28.43;;
13849;SDS011;6995;52.618;13.488;2023-04-24T03:57:20;33.23;;;31.27;;
13849;SDS011;6995;52.618;13.488;2023-04-24T03:59:45;29.10;;;27.40;;
13849;SDS011;6995;52.618;13.488;2023-04-24T04:02:11;29.73;;;27.83;;
13849;SDS011;6995;52.618;13.488;2023-04-24T04:04:37;30.30;;;28.50;;
13849;SDS011;6995;52.618;13.488;2023-04-24T04:07:03;29.17;;;27.47;;
13849;SDS011;6995;52.618;13.488;2023-04-24T04:09:30;29.30;;;27.53;;
13849;SDS011;6995;52.618;13.488;2023-04-24T04:11:56;31.53;;;29.53;;
13849;SDS011;6995;52.618;13.488;2023-04-24T04:14:22;27.60;;;25.90;;
13849;SDS011;6995;52.618;13.488;2023-04-24T04:16:48;28.57;;;26.77;;
13849;SDS011;6995;52.618;13.488;2023-04-24T04:19:14;27.30;;;25.70;;
13849;SDS011;6995;52.618;13.488;2023-04-24T04:21:40;30.10;;;28.30;;
13849;SDS011;6995;52.618;13.488;2023-04-24T04:24:05;31.03;;;29.10;;
13849;SDS011;6995;52.618;13.488;2023-04-24T04:26:32;30.35;;;28.33;;
13849;SDS011;6995;52.618;13.488;2023-04-24T04:28:58;31.23;;;29.40;;
13849;SDS011;6995;52.618;13.488;2023-04-24T04:31:25;31.20;;;29.20;;
13849;SDS011;6995;52.618;13.488;2023-04-24T04:33:51;27.23;;;25.63;;
13849;SDS011;6995;52.618;13.488;2023-04-24T04:36:16;29.03;;;27.13;;
13849;SDS011;6995;52.618;13.488;2023-04-24T04:38:42;30.98;;;29.17;;
13849;SDS011;6995;52.618;13.488;2023-04-24T04:41:09;27.50;;;25.90;;
13849;SDS011;6995;52.618;13.488;2023-04-24T04:43:35;30.50;;;28.60;;
13849;SDS011;6995;52.618;13.488;2023-04-24T04:46:01;27.70;;;26.10;;
13849;SDS011;6995;52.618;13.488;2023-04-24T04:48:28;29.20;;;27.40;;
13849;SDS011;6995;52.618;13.488;2023-04-24T04:50:56;28.92;;;27.25;;
13849;SDS011;6995;52.618;13.488;2023-04-24T04:53:22;29.90;;;27.93;;
13849;SDS011;6995;52.618;13.488;2023-04-24T04:55:47;28.43;;;26.50;;
13849;SDS011;6995;52.618;13.488;2023-04-24T04:58:13;29.97;;;27.93;;
13849;SDS011;6995;52.618;13.488;2023-04-24T05:00:39;30.47;;;28.67;;
13849;SDS011;6995;52.618;13.488;2023-04-24T05:03:04;29.90;;;28.10;;
13849;SDS011;6995;52.618;13.488;2023-04-24T05:05:31;32.78;;;30.77;;
13849;SDS011;6995;52.618;13.488;2023-04-24T05:07:56;31.90;;;29.87;;
13849;SDS011;6995;52.618;13.488;2023-04-24T05:10:22;32.08;;;30.17;;
13849;SDS011;6995;52.618;13.488;2023-04-24T05:12:48;29.98;;;28.10;;
13849;SDS011;6995;52.618;13.488;2023-04-24T05:15:14;31.07;;;29.47;;
13849;SDS011;6995;52.618;13.488;2023-04-24T05:17:40;30.50;;;28.90;;
13849;SDS011;6995;52.618;13.488;2023-04-24T05:20:06;30.67;;;28.77;;
13849;SDS011;6995;52.618;13.488;2023-04-24T05:22:32;26.50;;;25.10;;
13849;SDS011;6995;52.618;13.488;2023-04-24T05:24:58;27.75;;;26.17;;
13849;SDS011;6995;52.618;13.488;2023-04-24T05:27:24;26.63;;;25.23;;
13849;SDS011;6995;52.618;13.488;2023-04-24T05:29:49;28.73;;;27.13;;
13849;SDS011;6995;52.618;13.488;2023-04-24T05:32:16;27.43;;;25.70;;
13849;SDS011;6995;52.618;13.488;2023-04-24T05:34:41;28.37;;;26.53;;
13849;SDS011;6995;52.618;13.488;2023-04-24T05:37:07;28.03;;;26.43;;
13849;SDS011;6995;52.618;13.488;2023-04-24T05:39:34;31.52;;;29.10;;
13849;SDS011;6995;52.618;13.488;2023-04-24T05:42:01;28.20;;;26.35;;
13849;SDS011;6995;52.618;13.488;2023-04-24T05:44:26;24.85;;;23.45;;
13849;SDS011;6995;52.618;13.488;2023-04-24T05:46:52;29.40;;;27.65;;
13849;SDS011;6995;52.618;13.488;2023-04-24T05:49:20;23.95;;;22.55;;
13849;SDS011;6995;52.618;13.488;2023-04-24T05:51:45;24.35;;;23.05;;
13849;SDS011;6995;52.618;13.488;2023-04-24T05:54:11;24.45;;;23.00;;
13849;SDS011;6995;52.618;13.488;2023-04-24T05:56:37;26.03;;;24.33;;
13849;SDS011;6995;52.618;13.488;2023-04-24T05:59:03;23.10;;;21.80;;
13849;SDS011;6995;52.618;13.488;2023-04-24T06:01:29;22.33;;;21.03;;
13849;SDS011;6995;52.618;13.488;2023-04-24T06:03:54;25.63;;;24.00;;
13849;SDS011;6995;52.618;13.488;2023-04-24T06:06:20;22.55;;;21.35;;
13849;SDS011;6995;52.618;13.488;2023-04-24T06:08:46;21.80;;;20.55;;
13849;SDS011;6995;52.618;13.488;2023-04-24T06:11:11;24.52;;;23.17;;
13849;SDS011;6995;52.618;13.488;2023-04-24T06:13:37;24.60;;;23.05;;
13849;SDS011;6995;52.618;13.488;2023-04-24T06:16:02;22.83;;;21.55;;
13849;SDS011;6995;52.618;13.488;2023-04-24T06:18:31;21.90;;;20.60;;
13849;SDS011;6995;52.618;13.488;2023-04-24T06:20:56;22.63;;;21.52;;
13849;SDS011;6995;52.618;13.488;2023-04-24T06:23:22;22.87;;;21.67;;
13849;SDS011;6995;52.618;13.488;2023-04-24T06:25:48;22.40;;;21.00;;
13849;SDS011;6995;52.618;13.488;2023-04-24T06:28:13;20.80;;;19.80;;
13849;SDS011;6995;52.618;13.488;2023-04-24T06:30:39;26.20;;;24.70;;
13849;SDS011;6995;52.618;13.488;2023-04-24T06:33:06;21.23;;;20.20;;
13849;SDS011;6995;52.618;13.488;2023-04-24T06:35:31;21.83;;;20.63;;
13849;SDS011;6995;52.618;13.488;2023-04-24T06:37:57;21.70;;;20.15;;
13849;SDS011;6995;52.618;13.488;2023-04-24T06:40:22;23.35;;;21.90;;
13849;SDS011;6995;52.618;13.488;2023-04-24T06:42:49;20.80;;;19.70;;
13849;SDS011;6995;52.618;13.488;2023-04-24T06:45:15;22.65;;;21.30;;
13849;SDS011;6995;52.618;13.488;2023-04-24T06:47:40;22.65;;;21.55;;
13849;SDS011;6995;52.618;13.488;2023-04-24T06:50:06;23.23;;;21.75;;
13849;SDS011;6995;52.618;13.488;2023-04-24T06:52:32;22.02;;;20.58;;
13849;SDS011;6995;52.618;13.488;2023-04-24T06:55:01;24.08;;;22.65;;
13849;SDS011;6995;52.618;13.488;2023-04-24T06:57:27;22.77;;;21.35;;
13849;SDS011;6995;52.618;13.488;2023-04-24T06:59:53;23.98;;;22.63;;
13849;SDS011;6995;52.618;13.488;2023-04-24T07:02:19;19.77;;;18.88;;
13849;SDS011;6995;52.618;13.488;2023-04-24T07:04:45;22.65;;;21.52;;
13849;SDS011;6995;52.618;13.488;2023-04-24T07:07:11;21.35;;;20.02;;
13849;SDS011;6995;52.618;13.488;2023-04-24T07:09:39;21.83;;;20.77;;
13849;SDS011;6995;52.618;13.488;2023-04-24T07:12:07;22.67;;;21.38;;
13849;SDS011;6995;52.618;13.488;2023-04-24T07:14:33;23.73;;;22.52;;
13849;SDS011;6995;52.618;13.488;2023-04-24T07:16:59;23.60;;;22.40;;
13849;SDS011;6995;52.618;13.488;2023-04-24T07:19:24;21.60;;;20.50;;
13849;SDS011;6995;52.618;13.488;2023-04-24T07:21:50;21.05;;;19.95;;
13849;SDS011;6995;52.618;13.488;2023-04-24T07:24:15;21.35;;;20.42;;
13849;SDS011;6995;52.618;13.488;2023-04-24T07:26:41;21.30;;;20.13;;
13849;SDS011;6995;52.618;13.488;2023-04-24T07:29:07;21.88;;;20.75;;
13849;SDS011;6995;52.618;13.488;2023-04-24T07:31:33;22.05;;;20.75;;
13849;SDS011;6995;52.618;13.488;2023-04-24T07:33:58;20.20;;;19.27;;
13849;SDS011;6995;52.618;13.488;2023-04-24T07:36:24;19.25;;;18.35;;
13849;SDS011;6995;52.618;13.488;2023-04-24T07:38:51;20.80;;;19.65;;
13849;SDS011;6995;52.618;13.488;2023-04-24T07:41:17;19.40;;;18.50;;
13849;SDS011;6995;52.618;13.488;2023-04-24T07:43:42;20.60;;;19.40;;
13849;SDS011;6995;52.618;13.488;2023-04-24T07:46:09;21.30;;;20.00;;
13849;SDS011;6995;52.618;13.488;2023-04-24T07:48:35;21.15;;;20.00;;
13849;SDS011;6995;52.618;13.488;2023-04-24T07:51:01;21.55;;;20.55;;
13849;SDS011;6995;52.618;13.488;2023-04-24T07:53:26;21.38;;;20.17;;
13849;SDS011;6995;52.618;13.488;2023-04-24T07:55:53;24.77;;;23.45;;
13849;SDS011;6995;52.618;13.488;2023-04-24T07:58:20;24.90;;;23.80;;
13849;SDS011;6995;52.618;13.488;2023-04-24T08:00:46;27.55;;;26.05;;
13849;SDS011;6995;52.618;13.488;2023-04-24T08:03:12;24.35;;;23.25;;
13849;SDS011;6995;52.618;13.488;2023-04-24T08:05:38;23.45;;;22.35;;
13849;SDS011;6995;52.618;13.488;2023-04-24T08:08:04;22.63;;;21.60;;
13849;SDS011;6995;52.618;13.488;2023-04-24T08:10:29;20.95;;;19.92;;
13849;SDS011;6995;52.618;13.488;2023-04-24T08:12:55;24.33;;;23.10;;
13849;SDS011;6995;52.618;13.488;2023-04-24T08:15:21;25.13;;;23.90;;
13849;SDS011;6995;52.618;13.488;2023-04-24T08:17:47;21.08;;;20.17;;
13849;SDS011;6995;52.618;13.488;2023-04-24T08:20:12;24.33;;;23.00;;
13849;SDS011;6995;52.618;13.488;2023-04-24T08:22:41;23.90;;;22.58;;
13849;SDS011;6995;52.618;13.488;2023-04-24T08:25:08;22.85;;;21.75;;
13849;SDS011;6995;52.618;13.488;2023-04-24T08:27:35;23.35;;;22.08;;
13849;SDS011;6995;52.618;13.488;2023-04-24T08:30:04;22.95;;;21.50;;
13849;SDS011;6995;52.618;13.488;2023-04-24T08:32:31;22.17;;;20.92;;
13849;SDS011;6995;52.618;13.488;2023-04-24T08:34:56;25.10;;;23.83;;
13849;SDS011;6995;52.618;13.488;2023-04-24T08:37:23;20.95;;;19.95;;
13849;SDS011;6995;52.618;13.488;2023-04-24T08:39:49;22.35;;;21.25;;
13849;SDS011;6995;52.618;13.488;2023-04-24T08:42:15;21.98;;;20.80;;
13849;SDS011;6995;52.618;13.488;2023-04-24T08:44:42;21.10;;;20.10;;
13849;SDS011;6995;52.618;13.488;2023-04-24T08:47:09;21.20;;;20.17;;
13849;SDS011;6995;52.618;13.488;2023-04-24T08:49:36;21.65;;;20.63;;
13849;SDS011;6995;52.618;13.488;2023-04-24T08:52:02;20.55;;;19.58;;
13849;SDS011;6995;52.618;13.488;2023-04-24T08:54:29;20.52;;;19.52;;
13849;SDS011;6995;52.618;13.488;2023-04-24T08:56:58;20.00;;;19.00;;
13849;SDS011;6995;52.618;13.488;2023-04-24T08:59:26;21.25;;;20.30;;
13849;SDS011;6995;52.618;13.488;2023-04-24T09:01:53;21.75;;;20.70;;
13849;SDS011;6995;52.618;13.488;2023-04-24T09:04:21;21.08;;;20.08;;
13849;SDS011;6995;52.618;13.488;2023-04-24T09:06:49;20.80;;;19.65;;
13849;SDS011;6995;52.618;13.488;2023-04-24T09:09:22;20.77;;;19.77;;
13849;SDS011;6995;52.618;13.488;2023-04-24T09:11:53;23.33;;;21.77;;
13849;SDS011;6995;52.618;13.488;2023-04-24T09:14:20;19.05;;;18.15;;
13849;SDS011;6995;52.618;13.488;2023-04-24T09:16:48;19.42;;;18.52;;
13849;SDS011;6995;52.618;13.488;2023-04-24T09:19:13;20.98;;;19.98;;
13849;SDS011;6995;52.618;13.488;2023-04-24T09:21:39;18.70;;;17.73;;
13849;SDS011;6995;52.618;13.488;2023-04-24T09:24:07;20.88;;;19.88;;
13849;SDS011;6995;52.618;13.488;2023-04-24T09:26:39;19.17;;;18.27;;
13849;SDS011;6995;52.618;13.488;2023-04-24T09:29:05;19.45;;;18.58;;
13849;SDS011;6995;52.618;13.488;2023-04-24T09:31:31;19.73;;;18.73;;
13849;SDS011;6995;52.618;13.488;2023-04-24T09:34:01;22.17;;;20.95;;
13849;SDS011;6995;52.618;13.488;2023-04-24T09:36:41;19.38;;;18.48;;
13849;SDS011;6995;52.618;13.488;2023-04-24T09:39:10;19.77;;;18.83;;
13849;SDS011;6995;52.618;13.488;2023-04-24T09:44:17;18.13;;;17.23;;
13849;SDS011;6995;52.618;13.488;2023-04-24T09:46:49;18.77;;;17.90;;
13849;SDS011;6995;52.618;13.488;2023-04-24T09:49:25;19.80;;;18.80;;
13849;SDS011;6995;52.618;13.488;2023-04-24T09:52:02;21.50;;;20.50;;
13849;SDS011;6995;52.618;13.488;2023-04-24T09:54:32;18.67;;;17.63;;
13849;SDS011;6995;52.618;13.488;2023-04-24T09:56:58;18.13;;;17.15;;
13849;SDS011;6995;52.618;13.488;2023-04-24T09:59:25;20.75;;;19.58;;
13849;SDS011;6995;52.618;13.488;2023-04-24T10:01:51;19.70;;;18.80;;
13849;SDS011;6995;52.618;13.488;2023-04-24T10:06:49;20.20;;;19.30;;
13849;SDS011;6995;52.618;13.488;2023-04-24T10:09:17;23.20;;;22.00;;
13849;SDS011;6995;52.618;13.488;2023-04-24T10:11:44;21.55;;;20.05;;
13849;SDS011;6995;52.618;13.488;2023-04-24T10:14:25;20.35;;;19.45;;
13849;SDS011;6995;52.618;13.488;2023-04-24T10:16:54;19.98;;;18.65;;
13849;SDS011;6995;52.618;13.488;2023-04-24T10:19:24;21.52;;;20.35;;
13849;SDS011;6995;52.618;13.488;2023-04-24T10:21:50;20.95;;;19.90;;
13849;SDS011;6995;52.618;13.488;2023-04-24T10:24:18;19.05;;;17.73;;
13849;SDS011;6995;52.618;13.488;2023-04-24T10:26:46;20.33;;;19.02;;
13849;SDS011;6995;52.618;13.488;2023-04-24T10:29:14;18.67;;;17.67;;
13849;SDS011;6995;52.618;13.488;2023-04-24T10:31:41;20.17;;;19.17;;
13849;SDS011;6995;52.618;13.488;2023-04-24T10:34:10;19.08;;;18.13;;
13849;SDS011;6995;52.618;13.488;2023-04-24T10:36:38;21.45;;;20.13;;
13849;SDS011;6995;52.618;13.488;2023-04-24T10:39:11;21.42;;;20.33;;
13849;SDS011;6995;52.618;13.488;2023-04-24T10:41:39;18.77;;;17.77;;
13849;SDS011;6995;52.618;13.488;2023-04-24T10:46:34;18.52;;;17.52;;
13849;SDS011;6995;52.618;13.488;2023-04-24T10:49:03;20.05;;;19.00;;
13849;SDS011;6995;52.618;13.488;2023-04-24T10:51:48;21.52;;;20.33;;
13849;SDS011;6995;52.618;13.488;2023-04-24T10:54:21;18.70;;;17.40;;
13849;SDS011;6995;52.618;13.488;2023-04-24T10:59:51;21.30;;;20.08;;
13849;SDS011;6995;52.618;13.488;2023-04-24T11:02:35;19.42;;;18.55;;
13849;SDS011;6995;52.618;13.488;2023-04-24T11:05:03;21.40;;;20.05;;
13849;SDS011;6995;52.618;13.488;2023-04-24T11:07:29;20.95;;;19.95;;
13849;SDS011;6995;52.618;13.488;2023-04-24T11:09:58;19.65;;;18.55;;
13849;SDS011;6995;52.618;13.488;2023-04-24T11:12:35;23.15;;;21.60;;
13849;SDS011;6995;52.618;13.488;2023-04-24T11:15:01;19.80;;;18.90;;
13849;SDS011;6995;52.618;13.488;2023-04-24T11:17:35;20.58;;;19.50;;
13849;SDS011;6995;52.618;13.488;2023-04-24T11:20:10;19.05;;;18.05;;
13849;SDS011;6995;52.618;13.488;2023-04-24T11:22:37;19.23;;;18.20;;
13849;SDS011;6995;52.618;13.488;2023-04-24T11:25:24;18.63;;;17.73;;
13849;SDS011;6995;52.618;13.488;2023-04-24T11:28:02;24.83;;;23.13;;
13849;SDS011;6995;52.618;13.488;2023-04-24T11:30:31;20.15;;;19.15;;
13849;SDS011;6995;52.618;13.488;2023-04-24T11:33:04;21.73;;;20.52;;
13849;SDS011;6995;52.618;13.488;2023-04-24T11:35:33;21.60;;;20.52;;
13849;SDS011;6995;52.618;13.488;2023-04-24T11:38:02;26.75;;;25.08;;
13849;SDS011;6995;52.618;13.488;2023-04-24T11:40:28;19.67;;;18.77;;
13849;SDS011;6995;52.618;13.488;2023-04-24T11:42:54;19.65;;;18.63;;
13849;SDS011;6995;52.618;13.488;2023-04-24T11:45:25;18.35;;;17.45;;
13849;SDS011;6995;52.618;13.488;2023-04-24T11:47:52;21.20;;;19.92;;
13849;SDS011;6995;52.618;13.488;2023-04-24T11:50:19;21.20;;;19.85;;
13849;SDS011;6995;52.618;13.488;2023-04-24T11:52:47;19.02;;;18.10;;
13849;SDS011;6995;52.618;13.488;2023-04-24T11:57:39;21.52;;;20.42;;
13849;SDS011;6995;52.618;13.488;2023-04-24T12:00:16;21.15;;;19.95;;
13849;SDS011;6995;52.618;13.488;2023-04-24T12:02:47;22.08;;;20.88;;
13849;SDS011;6995;52.618;13.488;2023-04-24T12:05:20;28.10;;;26.50;;
13849;SDS011;6995;52.618;13.488;2023-04-24T12:07:46;24.08;;;22.90;;
13849;SDS011;6995;52.618;13.488;2023-04-24T12:10:19;24.00;;;22.70;;
13849;SDS011;6995;52.618;13.488;2023-04-24T12:12:46;26.40;;;25.08;;
13849;SDS011;6995;52.618;13.488;2023-04-24T12:15:12;27.40;;;25.60;;
13849;SDS011;6995;52.618;13.488;2023-04-24T12:17:40;21.98;;;20.98;;
13849;SDS011;6995;52.618;13.488;2023-04-24T12:20:08;23.77;;;22.48;;
13849;SDS011;6995;52.618;13.488;2023-04-24T12:22:44;23.02;;;22.02;;
13849;SDS011;6995;52.618;13.488;2023-04-24T12:25:15;29.85;;;27.90;;
13849;SDS011;6995;52.618;13.488;2023-04-24T12:27:53;20.13;;;19.23;;
13849;SDS011;6995;52.618;13.488;2023-04-24T12:30:20;21.88;;;20.52;;
13849;SDS011;6995;52.618;13.488;2023-04-24T12:32:51;18.45;;;17.55;;
13849;SDS011;6995;52.618;13.488;2023-04-24T12:35:20;18.85;;;17.75;;
13849;SDS011;6995;52.618;13.488;2023-04-24T12:37:47;21.42;;;20.42;;
13849;SDS011;6995;52.618;13.488;2023-04-24T12:40:13;26.88;;;25.50;;
13849;SDS011;6995;52.618;13.488;2023-04-24T12:42:43;18.50;;;17.58;;
13849;SDS011;6995;52.618;13.488;2023-04-24T12:45:13;19.77;;;18.55;;
13849;SDS011;6995;52.618;13.488;2023-04-24T12:47:41;25.05;;;23.00;;
13849;SDS011;6995;52.618;13.488;2023-04-24T12:50:09;32.03;;;30.02;;
13849;SDS011;6995;52.618;13.488;2023-04-24T12:52:36;28.73;;;26.95;;
13849;SDS011;6995;52.618;13.488;2023-04-24T12:55:05;19.08;;;18.00;;
13849;SDS011;6995;52.618;13.488;2023-04-24T12:57:35;23.30;;;21.90;;
13849;SDS011;6995;52.618;13.488;2023-04-24T13:00:04;20.88;;;19.77;;
13849;SDS011;6995;52.618;13.488;2023-04-24T13:02:37;23.50;;;22.30;;
13849;SDS011;6995;52.618;13.488;2023-04-24T13:05:05;26.63;;;25.27;;
13849;SDS011;6995;52.618;13.488;2023-04-24T13:07:31;21.10;;;20.02;;
13849;SDS011;6995;52.618;13.488;2023-04-24T13:09:56;17.88;;;16.98;;
13849;SDS011;6995;52.618;13.488;2023-04-24T13:12:22;19.65;;;18.60;;
13849;SDS011;6995;52.618;13.488;2023-04-24T13:14:51;22.25;;;21.05;;
13849;SDS011;6995;52.618;13.488;2023-04-24T13:17:17;21.00;;;19.90;;
13849;SDS011;6995;52.618;13.488;2023-04-24T13:19:43;23.85;;;22.45;;
13849;SDS011;6995;52.618;13.488;2023-04-24T13:22:13;20.90;;;19.77;;
13849;SDS011;6995;52.618;13.488;2023-04-24T13:24:39;23.95;;;22.45;;
13849;SDS011;6995;52.618;13.488;2023-04-24T13:27:07;20.35;;;19.15;;
13849;SDS011;6995;52.618;13.488;2023-04-24T13:29:36;24.20;;;22.77;;
13849;SDS011;6995;52.618;13.488;2023-04-24T13:32:09;20.05;;;19.05;;
13849;SDS011;6995;52.618;13.488;2023-04-24T13:34:35;20.42;;;19.42;;
13849;SDS011;6995;52.618;13.488;2023-04-24T13:37:02;19.55;;;18.55;;
13849;SDS011;6995;52.618;13.488;2023-04-24T13:39:31;20.48;;;19.33;;
13849;SDS011;6995;52.618;13.488;2023-04-24T13:41:57;20.67;;;19.67;;
13849;SDS011;6995;52.618;13.488;2023-04-24T13:44:23;21.52;;;20.27;;
13849;SDS011;6995;52.618;13.488;2023-04-24T13:46:49;23.67;;;22.45;;
13849;SDS011;6995;52.618;13.488;2023-04-24T13:49:21;19.75;;;18.55;;
13849;SDS011;6995;52.618;13.488;2023-04-24T13:51:49;21.63;;;20.42;;
13849;SDS011;6995;52.618;13.488;2023-04-24T13:54:15;20.92;;;19.75;;
13849;SDS011;6995;52.618;13.488;2023-04-24T13:56:41;19.77;;;18.67;;
13849;SDS011;6995;52.618;13.488;2023-04-24T13:59:07;21.52;;;20.42;;
13849;SDS011;6995;52.618;13.488;2023-04-24T14:01:33;19.88;;;18.88;;
13849;SDS011;6995;52.618;13.488;2023-04-24T14:03:59;18.95;;;17.95;;
13849;SDS011;6995;52.618;13.488;2023-04-24T14:06:25;19.17;;;18.23;;
13849;SDS011;6995;52.618;13.488;2023-04-24T14:08:50;23.05;;;21.75;;
13849;SDS011;6995;52.618;13.488;2023-04-24T14:11:16;20.20;;;19.15;;
13849;SDS011;6995;52.618;13.488;2023-04-24T14:13:43;21.38;;;20.25;;
13849;SDS011;6995;52.618;13.488;2023-04-24T14:16:08;21.10;;;20.08;;
13849;SDS011;6995;52.618;13.488;2023-04-24T14:18:35;23.88;;;22.60;;
13849;SDS011;6995;52.618;13.488;2023-04-24T14:21:01;21.77;;;20.67;;
13849;SDS011;6995;52.618;13.488;2023-04-24T14:23:27;21.85;;;20.67;;
13849;SDS011;6995;52.618;13.488;2023-04-24T14:25:53;21.90;;;20.85;;
13849;SDS011;6995;52.618;13.488;2023-04-24T14:28:19;24.10;;;22.85;;
13849;SDS011;6995;52.618;13.488;2023-04-24T14:30:46;23.73;;;22.38;;
13849;SDS011;6995;52.618;13.488;2023-04-24T14:33:12;22.20;;;21.10;;